createdAt,value
2023-03-18T00:00:24.303Z,6.95
2023-03-18T00:02:52.757Z,6.15
2023-03-18T00:05:20.374Z,9.00
2023-03-18T00:07:47.630Z,7.55
2023-03-18T00:10:14.676Z,7.57
2023-03-18T00:12:41.646Z,7.20
2023-03-18T00:15:10.441Z,5.93
2023-03-18T00:17:37.992Z,8.02
2023-03-18T00:20:06.930Z,5.75
2023-03-18T00:22:34.533Z,6.13
2023-03-18T00:25:01.196Z,6.63
2023-03-18T00:27:29.024Z,6.35
2023-03-18T00:29:56.152Z,5.13
2023-03-18T00:32:23.269Z,7.15
2023-03-18T00:34:50.808Z,5.80
2023-03-18T00:37:30.208Z,5.47
2023-03-18T00:40:04.804Z,5.72
2023-03-18T00:42:39.146Z,5.80
2023-03-18T00:45:08.747Z,9.05
2023-03-18T00:47:36.405Z,4.97
2023-03-18T00:50:03.830Z,4.68
2023-03-18T00:52:32.289Z,5.18
2023-03-18T00:55:00.229Z,7.22
2023-03-18T00:57:29.512Z,6.15
2023-03-18T00:59:57.170Z,6.63
2023-03-18T01:02:25.002Z,7.00
2023-03-18T01:04:52.241Z,7.00
2023-03-18T01:07:19.606Z,5.70
2023-03-18T01:09:48.532Z,5.00
2023-03-18T01:12:15.230Z,5.60
2023-03-18T01:14:43.193Z,4.22
2023-03-18T01:17:09.863Z,5.82
2023-03-18T01:19:37.454Z,5.70
2023-03-18T01:22:04.770Z,4.93
2023-03-18T01:24:37.240Z,5.28
2023-03-18T01:27:04.513Z,5.82
2023-03-18T01:29:31.341Z,6.38
2023-03-18T01:31:58.699Z,5.25
2023-03-18T01:34:25.324Z,6.03
2023-03-18T01:36:53.967Z,5.30
2023-03-18T01:39:23.558Z,6.72
2023-03-18T01:41:51.322Z,4.65
2023-03-18T01:44:27.486Z,4.40
2023-03-18T01:46:56.909Z,6.35
2023-03-18T01:49:32.177Z,5.82
2023-03-18T01:52:10.962Z,4.35
2023-03-18T01:54:42.127Z,4.75
2023-03-18T01:57:09.489Z,4.97
2023-03-18T01:59:38.705Z,4.10
2023-03-18T02:02:09.355Z,4.22
2023-03-18T02:04:40.165Z,3.38
2023-03-18T02:07:14.694Z,4.50
2023-03-18T02:09:41.348Z,3.92
2023-03-18T02:12:08.830Z,4.15
2023-03-18T02:14:35.947Z,3.30
2023-03-18T02:17:12.671Z,4.15
2023-03-18T02:19:47.867Z,4.38
2023-03-18T02:22:57.674Z,2.00
2023-03-18T02:25:57.418Z,3.42
2023-03-18T02:28:26.517Z,2.70
2023-03-18T02:30:56.748Z,2.63
2023-03-18T02:33:26.949Z,4.18
2023-03-18T02:35:57.325Z,5.03
2023-03-18T02:38:24.118Z,2.60
2023-03-18T02:40:51.949Z,4.90
2023-03-18T02:46:14.924Z,2.80
2023-03-18T02:48:44.539Z,4.20
2023-03-18T02:51:12.756Z,3.17
2023-03-18T02:53:39.508Z,2.70
2023-03-18T02:56:07.173Z,4.50
2023-03-18T02:58:35.650Z,2.15
2023-03-18T03:01:04.749Z,3.05
2023-03-18T03:03:31.558Z,3.53
2023-03-18T03:05:58.325Z,3.88
2023-03-18T03:08:25.016Z,5.45
2023-03-18T03:10:52.596Z,8.90
2023-03-18T03:13:20.935Z,6.63
2023-03-18T03:15:48.576Z,6.38
2023-03-18T03:18:15.722Z,7.25
2023-03-18T03:20:43.947Z,9.52
2023-03-18T03:23:13.512Z,5.55
2023-03-18T03:25:40.422Z,4.53
2023-03-18T03:28:08.616Z,7.20
2023-03-18T03:30:36.815Z,7.45
2023-03-18T03:33:04.430Z,6.03
2023-03-18T03:35:31.815Z,5.97
2023-03-18T03:37:59.179Z,5.00
2023-03-18T03:40:26.197Z,4.07
2023-03-18T03:42:52.887Z,6.78
2023-03-18T03:45:20.245Z,6.00
2023-03-18T03:47:47.558Z,6.25
2023-03-18T03:50:16.766Z,4.47
2023-03-18T03:52:43.944Z,3.85
2023-03-18T03:55:14.206Z,3.50
2023-03-18T03:57:41.019Z,3.47
2023-03-18T04:00:14.576Z,3.22
2023-03-18T04:02:43.576Z,4.03
2023-03-18T04:07:39.870Z,3.53
2023-03-18T04:10:09.665Z,5.25
2023-03-18T04:12:37.359Z,3.28
2023-03-18T04:15:05.492Z,4.40
2023-03-18T04:17:33.588Z,4.85
2023-03-18T04:20:00.932Z,3.83
2023-03-18T04:22:31.461Z,4.40
2023-03-18T04:25:02.676Z,5.65
2023-03-18T04:27:30.117Z,3.67
2023-03-18T04:29:59.371Z,4.30
2023-03-18T04:32:34.424Z,3.17
2023-03-18T04:35:01.968Z,3.22
2023-03-18T04:37:28.663Z,3.10
2023-03-18T04:39:56.844Z,3.22
2023-03-18T04:42:23.474Z,3.40
2023-03-18T04:44:50.253Z,4.18
2023-03-18T04:47:17.338Z,2.97
2023-03-18T04:49:49.416Z,4.53
2023-03-18T04:52:17.346Z,4.18
2023-03-18T04:54:44.804Z,3.33
2023-03-18T04:57:11.770Z,3.97
2023-03-18T04:59:45.335Z,2.42
2023-03-18T05:02:11.994Z,3.35
2023-03-18T05:04:39.184Z,3.80
2023-03-18T05:07:07.247Z,3.60
2023-03-18T05:09:37.590Z,3.08
2023-03-18T05:12:07.044Z,3.20
2023-03-18T05:14:36.266Z,3.17
2023-03-18T05:17:04.580Z,4.43
2023-03-18T05:19:33.482Z,4.47
2023-03-18T05:22:11.853Z,4.32
2023-03-18T05:24:44.166Z,2.65
2023-03-18T05:27:10.972Z,3.95
2023-03-18T05:29:41.198Z,3.35
2023-03-18T05:32:26.957Z,4.35
2023-03-18T05:34:59.965Z,3.63
2023-03-18T05:37:27.734Z,3.38
2023-03-18T05:40:04.434Z,2.75
2023-03-18T05:42:31.181Z,3.13
2023-03-18T05:44:58.314Z,2.22
2023-03-18T05:47:26.093Z,2.08
2023-03-18T05:50:14.417Z,4.80
2023-03-18T05:52:41.408Z,3.83
2023-03-18T05:55:15.524Z,3.22
2023-03-18T05:57:45.418Z,2.45
2023-03-18T06:00:13.553Z,3.13
2023-03-18T06:02:43.825Z,3.28
2023-03-18T06:05:12.305Z,4.00
2023-03-18T06:07:39.498Z,3.63
2023-03-18T06:10:06.978Z,5.13
2023-03-18T06:12:34.159Z,3.45
2023-03-18T06:15:00.833Z,2.13
2023-03-18T06:17:27.930Z,2.85
2023-03-18T06:19:55.040Z,3.05
2023-03-18T06:22:22.495Z,2.60
2023-03-18T06:24:49.700Z,2.95
2023-03-18T06:27:18.296Z,3.75
2023-03-18T06:29:49.735Z,2.95
2023-03-18T06:32:18.493Z,5.35
2023-03-18T06:34:45.623Z,3.33
2023-03-18T06:37:12.315Z,2.33
2023-03-18T06:39:41.117Z,2.80
2023-03-18T06:42:10.232Z,3.10
2023-03-18T06:44:54.380Z,2.97
2023-03-18T06:47:27.865Z,3.72
2023-03-18T06:49:56.957Z,3.50
2023-03-18T06:52:34.054Z,3.20
2023-03-18T06:55:10.366Z,3.63
2023-03-18T06:57:40.523Z,4.00
2023-03-18T07:00:10.536Z,4.20
2023-03-18T07:02:39.611Z,4.03
2023-03-18T07:05:08.675Z,3.55
2023-03-18T07:07:37.814Z,3.83
2023-03-18T07:10:10.718Z,5.03
2023-03-18T07:12:38.047Z,2.88
2023-03-18T07:15:06.369Z,3.08
2023-03-18T07:17:32.984Z,6.57
2023-03-18T07:19:59.664Z,3.15
2023-03-18T07:22:26.556Z,4.10
2023-03-18T07:24:57.197Z,7.70
2023-03-18T07:27:24.814Z,4.53
2023-03-18T07:29:51.681Z,4.38
2023-03-18T07:32:21.058Z,3.67
2023-03-18T07:34:48.771Z,4.45
2023-03-18T07:37:15.776Z,6.88
2023-03-18T07:39:43.965Z,3.03
2023-03-18T07:42:11.362Z,3.08
2023-03-18T07:47:07.705Z,3.08
2023-03-18T07:49:34.339Z,4.40
2023-03-18T07:52:02.166Z,4.47
2023-03-18T07:54:28.788Z,3.58
2023-03-18T07:56:55.473Z,3.15
2023-03-18T07:59:22.150Z,3.70
2023-03-18T08:01:49.146Z,4.70
2023-03-18T08:04:16.550Z,2.38
2023-03-18T08:06:43.554Z,4.72
2023-03-18T08:09:10.734Z,3.17
2023-03-18T08:11:38.293Z,5.63
2023-03-18T08:14:04.952Z,2.83
2023-03-18T08:16:31.618Z,4.43
2023-03-18T08:18:58.911Z,3.17
2023-03-18T08:21:25.651Z,2.78
2023-03-18T08:23:52.469Z,6.18
2023-03-18T08:26:19.552Z,2.95
2023-03-18T08:28:46.151Z,3.58
2023-03-18T08:31:14.353Z,3.20
2023-03-18T08:33:41.576Z,2.35
2023-03-18T08:36:08.754Z,3.58
2023-03-18T08:38:35.582Z,4.47
2023-03-18T08:41:02.237Z,3.10
2023-03-18T08:43:28.852Z,2.97
2023-03-18T08:45:56.319Z,5.18
2023-03-18T08:48:23.666Z,2.53
2023-03-18T08:50:50.470Z,7.25
2023-03-18T08:53:18.004Z,4.20
2023-03-18T08:55:44.688Z,3.92
2023-03-18T08:58:11.475Z,2.53
2023-03-18T09:00:41.803Z,2.25
2023-03-18T09:03:10.228Z,3.40
2023-03-18T09:05:38.255Z,2.97
2023-03-18T09:08:06.890Z,4.43
2023-03-18T09:10:33.726Z,3.05
2023-03-18T09:13:01.054Z,3.47
2023-03-18T09:15:30.081Z,1.92
2023-03-18T09:18:11.144Z,3.78
2023-03-18T09:20:39.310Z,1.83
2023-03-18T09:23:07.124Z,3.28
2023-03-18T09:25:35.307Z,3.70
2023-03-18T09:28:02.432Z,2.40
2023-03-18T09:30:30.275Z,3.28
2023-03-18T09:32:57.118Z,2.95
2023-03-18T09:35:24.419Z,2.20
2023-03-18T09:37:52.102Z,1.95
2023-03-18T09:40:25.237Z,2.20
2023-03-18T09:43:13.507Z,2.42
2023-03-18T09:45:47.109Z,2.95
2023-03-18T09:48:27.721Z,2.55
2023-03-18T09:51:06.170Z,2.08
2023-03-18T09:53:52.700Z,1.20
2023-03-18T09:56:26.714Z,2.03
2023-03-18T09:59:01.156Z,3.47
2023-03-18T10:01:49.608Z,5.40
2023-03-18T10:04:25.679Z,3.50
2023-03-18T10:06:58.160Z,1.02
2023-03-18T10:09:31.755Z,2.08
2023-03-18T10:12:14.973Z,1.85
2023-03-18T10:14:47.454Z,4.00
2023-03-18T10:17:26.308Z,2.33
2023-03-18T10:20:04.227Z,1.42
2023-03-18T10:22:54.200Z,2.55
2023-03-18T10:25:23.771Z,1.67
2023-03-18T10:28:12.543Z,1.65
2023-03-18T10:30:57.533Z,3.05
2023-03-18T10:33:52.070Z,1.90
2023-03-18T10:36:23.491Z,3.58
2023-03-18T10:38:51.876Z,3.25
2023-03-18T10:41:36.106Z,3.47
2023-03-18T10:44:07.278Z,2.35
2023-03-18T10:46:35.753Z,2.40
2023-03-18T10:49:08.251Z,2.42
2023-03-18T10:51:53.943Z,2.38
2023-03-18T10:54:28.025Z,2.03
2023-03-18T10:56:55.086Z,2.47
2023-03-18T10:59:23.263Z,2.08
2023-03-18T11:02:13.812Z,2.75
2023-03-18T11:04:56.530Z,3.33
2023-03-18T11:07:26.145Z,2.67
2023-03-18T11:09:53.243Z,2.33
2023-03-18T11:12:29.504Z,1.80
2023-03-18T11:14:56.483Z,1.45
2023-03-18T11:17:35.413Z,1.92
2023-03-18T11:20:26.754Z,3.10
2023-03-18T11:22:55.804Z,1.90
2023-03-18T11:25:26.808Z,2.00
2023-03-18T11:28:04.301Z,1.35
2023-03-18T11:30:44.797Z,4.32
2023-03-18T11:33:11.988Z,2.53
2023-03-18T11:35:52.181Z,1.80
2023-03-18T11:38:29.042Z,2.10
2023-03-18T11:41:15.559Z,2.13
2023-03-18T11:43:56.356Z,2.50
2023-03-18T11:46:24.294Z,2.47
2023-03-18T11:48:50.978Z,2.80
2023-03-18T11:51:24.565Z,1.77
2023-03-18T11:54:04.853Z,2.13
2023-03-18T11:56:35.361Z,1.67
2023-03-18T11:59:23.935Z,3.15
2023-03-18T12:02:12.411Z,1.25
2023-03-18T12:05:16.904Z,3.13
2023-03-18T12:07:56.960Z,1.67
2023-03-18T12:10:34.527Z,2.95
2023-03-18T12:13:36.333Z,4.05
2023-03-18T12:16:28.951Z,0.90
2023-03-18T12:19:02.254Z,2.70
2023-03-18T12:21:50.121Z,2.42
2023-03-18T12:24:22.395Z,2.10
2023-03-18T12:27:05.559Z,3.75
2023-03-18T12:30:06.770Z,2.47
2023-03-18T12:32:49.897Z,1.55
2023-03-18T12:35:29.566Z,2.92
2023-03-18T12:38:06.897Z,1.98
2023-03-18T12:40:49.243Z,1.45
2023-03-18T12:43:24.511Z,2.55
2023-03-18T12:45:55.563Z,3.08
2023-03-18T12:48:43.705Z,2.42
2023-03-18T12:51:14.291Z,1.35
2023-03-18T12:53:53.816Z,7.88
2023-03-18T12:56:24.053Z,2.53
2023-03-18T12:58:54.163Z,1.67
2023-03-18T13:01:26.610Z,1.40
2023-03-18T13:03:58.517Z,2.95
2023-03-18T13:06:36.178Z,2.45
2023-03-18T13:09:23.658Z,1.15
2023-03-18T13:12:04.745Z,3.25
2023-03-18T13:14:34.283Z,2.95
2023-03-18T13:17:01.509Z,2.50
2023-03-18T13:19:28.364Z,2.40
2023-03-18T13:22:29.114Z,2.60
2023-03-18T13:25:08.742Z,0.68
2023-03-18T13:28:10.791Z,1.77
2023-03-18T13:30:59.422Z,1.48
2023-03-18T13:33:53.215Z,1.90
2023-03-18T13:39:34.237Z,4.15
2023-03-18T13:42:24.203Z,2.08
2023-03-18T13:44:57.480Z,1.95
2023-03-18T13:47:24.675Z,2.60
2023-03-18T13:50:00.108Z,1.92
2023-03-18T13:52:35.719Z,2.35
2023-03-18T13:55:06.750Z,2.90
2023-03-18T13:57:50.590Z,2.47
2023-03-18T14:00:25.579Z,2.08
2023-03-18T14:03:25.312Z,1.52
2023-03-18T14:08:44.148Z,1.73
2023-03-18T14:11:16.919Z,2.70
2023-03-18T14:13:45.036Z,1.60
2023-03-18T14:16:13.539Z,1.52
2023-03-18T14:18:40.412Z,1.60
2023-03-18T14:21:23.769Z,3.28
2023-03-18T14:24:12.662Z,4.63
2023-03-18T14:26:39.850Z,1.80
2023-03-18T14:29:06.412Z,1.27
2023-03-18T14:31:40.159Z,2.78
2023-03-18T14:34:19.255Z,2.50
2023-03-18T14:37:14.870Z,3.15
2023-03-18T14:39:43.729Z,1.33
2023-03-18T14:42:23.329Z,1.25
2023-03-18T14:44:53.204Z,1.45
2023-03-18T14:47:37.834Z,2.03
2023-03-18T14:50:30.785Z,1.50
2023-03-18T14:53:12.598Z,2.42
2023-03-18T14:55:40.356Z,4.32
2023-03-18T14:58:07.193Z,2.35
2023-03-18T15:00:35.862Z,2.85
2023-03-18T15:03:15.235Z,0.85
2023-03-18T15:05:42.604Z,2.17
2023-03-18T15:08:15.180Z,2.10
2023-03-18T15:10:43.017Z,1.25
2023-03-18T15:13:15.385Z,2.03
2023-03-18T15:15:42.914Z,1.90
2023-03-18T15:18:28.657Z,0.55
2023-03-18T15:20:58.541Z,0.80
2023-03-18T15:23:31.872Z,2.38
2023-03-18T15:25:58.521Z,2.17
2023-03-18T15:28:27.896Z,2.33
2023-03-18T15:30:56.669Z,2.08
2023-03-18T15:33:54.965Z,1.35
2023-03-18T15:36:22.049Z,3.10
2023-03-18T15:38:50.607Z,1.75
2023-03-18T15:41:21.590Z,1.27
2023-03-18T15:43:51.573Z,1.17
2023-03-18T15:46:27.518Z,2.80
2023-03-18T15:48:55.971Z,1.05
2023-03-18T15:51:40.446Z,2.13
2023-03-18T15:54:17.676Z,5.40
2023-03-18T15:56:46.990Z,1.90
2023-03-18T15:59:18.111Z,2.22
2023-03-18T16:01:47.266Z,2.38
2023-03-18T16:04:16.607Z,3.35
2023-03-18T16:06:44.092Z,2.95
2023-03-18T16:09:16.020Z,5.45
2023-03-18T16:11:44.570Z,2.10
2023-03-18T16:14:17.082Z,1.73
2023-03-18T16:16:43.762Z,3.20
2023-03-18T16:19:22.610Z,2.20
2023-03-18T16:21:49.338Z,3.25
2023-03-18T16:24:18.788Z,2.33
2023-03-18T16:26:46.962Z,3.10
2023-03-18T16:29:27.906Z,2.28
2023-03-18T16:31:54.626Z,4.45
2023-03-18T16:34:21.945Z,4.88
2023-03-18T16:36:50.866Z,3.28
2023-03-18T16:39:18.270Z,2.60
2023-03-18T16:41:45.044Z,4.20
2023-03-18T16:44:16.200Z,2.72
2023-03-18T16:46:45.633Z,3.47
2023-03-18T16:49:21.913Z,8.27
2023-03-18T16:51:52.478Z,4.60
2023-03-18T16:54:23.712Z,4.20
2023-03-18T16:56:53.457Z,2.17
2023-03-18T16:59:20.527Z,2.08
2023-03-18T17:01:47.179Z,3.17
2023-03-18T17:04:28.647Z,3.72
2023-03-18T17:06:56.224Z,1.73
2023-03-18T17:09:23.432Z,3.78
2023-03-18T17:11:51.000Z,3.10
2023-03-18T17:14:27.698Z,2.17
2023-03-18T17:16:54.684Z,3.60
2023-03-18T17:19:23.676Z,2.80
2023-03-18T17:21:50.326Z,3.55
2023-03-18T17:24:17.070Z,2.35
2023-03-18T17:26:44.173Z,3.08
2023-03-18T17:29:23.706Z,2.95
2023-03-18T17:31:51.835Z,3.10
2023-03-18T17:34:18.792Z,1.83
2023-03-18T17:36:46.222Z,2.97
2023-03-18T17:39:13.180Z,4.00
2023-03-18T17:41:39.841Z,3.38
2023-03-18T17:44:28.468Z,4.28
2023-03-18T17:46:57.150Z,3.22
2023-03-18T17:49:26.534Z,3.05
2023-03-18T17:51:56.369Z,4.18
2023-03-18T17:54:27.257Z,5.20
2023-03-18T17:56:54.867Z,4.15
2023-03-18T17:59:21.566Z,3.67
2023-03-18T18:01:49.165Z,6.65
2023-03-18T18:04:17.738Z,2.53
2023-03-18T18:06:47.871Z,5.43
2023-03-18T18:11:46.536Z,4.35
2023-03-18T18:14:29.001Z,4.93
2023-03-18T18:16:59.720Z,3.22
2023-03-18T18:19:27.133Z,6.82
2023-03-18T18:21:54.975Z,4.55
2023-03-18T18:24:28.016Z,5.97
2023-03-18T18:26:54.768Z,6.30
2023-03-18T18:29:23.816Z,3.67
2023-03-18T18:31:51.084Z,3.78
2023-03-18T18:34:18.258Z,4.68
2023-03-18T18:36:45.283Z,3.28
2023-03-18T18:39:12.206Z,3.72
2023-03-18T18:41:39.577Z,4.75
2023-03-18T18:44:07.053Z,4.00
2023-03-18T18:46:34.988Z,2.97
2023-03-18T18:49:04.426Z,4.53
2023-03-18T18:51:31.446Z,3.25
2023-03-18T18:53:59.983Z,3.60
2023-03-18T18:56:34.223Z,4.28
2023-03-18T18:59:04.256Z,4.30
2023-03-18T19:01:31.195Z,8.30
2023-03-18T19:03:57.886Z,28.73
2023-03-18T19:06:30.919Z,24.90
2023-03-18T19:08:59.553Z,12.70
2023-03-18T19:11:27.210Z,8.82
2023-03-18T19:13:58.030Z,4.47
2023-03-18T19:16:32.152Z,5.15
2023-03-18T19:18:59.369Z,7.20
2023-03-18T19:21:27.235Z,7.55
2023-03-18T19:23:54.259Z,3.42
2023-03-18T19:26:21.615Z,4.55
2023-03-18T19:28:57.600Z,3.97
2023-03-18T19:31:27.027Z,4.13
2023-03-18T19:33:54.059Z,4.97
2023-03-18T19:36:23.869Z,3.22
2023-03-18T19:38:50.949Z,3.85
2023-03-18T19:41:17.547Z,5.32
2023-03-18T19:43:44.212Z,4.40
2023-03-18T19:46:30.184Z,7.00
2023-03-18T19:48:57.269Z,4.07
2023-03-18T19:51:23.874Z,7.38
2023-03-18T19:53:50.556Z,6.40
2023-03-18T19:56:28.844Z,5.95
2023-03-18T19:58:59.137Z,4.45
2023-03-18T20:01:27.449Z,4.40
2023-03-18T20:04:00.977Z,5.57
2023-03-18T20:06:27.835Z,5.68
2023-03-18T20:08:54.595Z,5.20
2023-03-18T20:11:21.320Z,5.03
2023-03-18T20:13:48.259Z,7.53
2023-03-18T20:16:16.257Z,6.90
2023-03-18T20:18:43.991Z,7.13
2023-03-18T20:21:24.016Z,8.77
2023-03-18T20:23:51.619Z,9.52
2023-03-18T20:26:18.539Z,7.05
2023-03-18T20:28:45.822Z,8.07
2023-03-18T20:31:12.654Z,6.57
2023-03-18T20:33:39.329Z,8.02
2023-03-18T20:36:06.367Z,7.00
2023-03-18T20:38:36.046Z,5.82
2023-03-18T20:41:03.384Z,5.15
2023-03-18T20:43:30.295Z,8.43
2023-03-18T20:45:58.617Z,8.10
2023-03-18T20:48:25.391Z,10.55
2023-03-18T20:50:52.735Z,9.82
2023-03-18T20:53:24.953Z,10.02
2023-03-18T20:55:52.078Z,7.93
2023-03-18T20:58:22.044Z,8.68
2023-03-18T21:00:49.084Z,8.40
2023-03-18T21:03:29.475Z,7.82
2023-03-18T21:06:03.976Z,11.02
2023-03-18T21:08:31.782Z,6.90
2023-03-18T21:11:01.716Z,8.65
2023-03-18T21:15:58.142Z,7.63
2023-03-18T21:18:26.200Z,8.60
2023-03-18T21:20:53.794Z,9.20
2023-03-18T21:23:23.495Z,6.45
2023-03-18T21:25:51.179Z,9.00
2023-03-18T21:28:19.456Z,7.25
2023-03-18T21:30:48.174Z,7.00
2023-03-18T21:33:27.912Z,9.55
2023-03-18T21:35:58.544Z,8.80
2023-03-18T21:38:30.707Z,6.85
2023-03-18T21:40:58.587Z,8.57
2023-03-18T21:43:37.798Z,7.65
2023-03-18T21:46:09.425Z,7.80
2023-03-18T21:48:36.178Z,13.98
2023-03-18T21:51:02.901Z,8.73
2023-03-18T21:53:29.601Z,8.93
2023-03-18T21:55:56.303Z,9.63
2023-03-18T21:58:24.892Z,9.95
2023-03-18T22:00:56.586Z,7.95
2023-03-18T22:03:25.167Z,7.40
2023-03-18T22:05:52.696Z,6.93
2023-03-18T22:08:20.657Z,7.53
2023-03-18T22:10:47.820Z,8.23
2023-03-18T22:13:18.517Z,5.50
2023-03-18T22:18:12.975Z,8.63
2023-03-18T22:20:39.864Z,8.52
2023-03-18T22:23:16.471Z,10.25
2023-03-18T22:25:44.495Z,6.65
2023-03-18T22:28:12.197Z,7.60
2023-03-18T22:30:39.583Z,7.32
2023-03-18T22:33:06.667Z,9.02
2023-03-18T22:35:33.933Z,7.68
2023-03-18T22:38:00.792Z,8.13
2023-03-18T22:40:29.860Z,9.90
2023-03-18T22:43:00.968Z,8.05
2023-03-18T22:45:33.267Z,7.13
2023-03-18T22:48:03.772Z,10.27
2023-03-18T22:50:32.935Z,7.75
2023-03-18T22:53:01.963Z,7.35
2023-03-18T22:55:32.997Z,7.30
2023-03-18T22:57:59.759Z,7.25
2023-03-18T23:00:41.077Z,8.32
2023-03-18T23:03:19.248Z,8.55
2023-03-18T23:05:48.206Z,8.98
2023-03-18T23:08:15.161Z,5.82
2023-03-18T23:10:43.835Z,7.28
2023-03-18T23:13:16.506Z,7.90
2023-03-18T23:15:43.808Z,8.13
2023-03-18T23:18:15.669Z,7.93
2023-03-18T23:20:44.133Z,6.75
2023-03-18T23:23:11.827Z,7.07
2023-03-18T23:25:39.364Z,7.20
2023-03-18T23:28:06.062Z,8.75
2023-03-18T23:30:36.426Z,6.13
2023-03-18T23:33:03.495Z,8.02
2023-03-18T23:35:30.275Z,6.70
2023-03-18T23:37:59.471Z,6.18
2023-03-18T23:40:26.422Z,10.88
2023-03-18T23:42:53.424Z,10.68
2023-03-18T23:45:20.423Z,9.18
2023-03-18T23:47:47.303Z,9.10
2023-03-18T23:50:14.051Z,9.52
2023-03-18T23:52:40.860Z,8.90
2023-03-18T23:55:21.369Z,7.90
2023-03-18T23:57:56.953Z,6.85
